createdAt,value
2022-10-18T00:01:14.286Z,15.58
2022-10-18T00:06:16.692Z,15.63
2022-10-18T00:08:45.294Z,15.58
2022-10-18T00:11:13.839Z,15.69
2022-10-18T00:13:42.505Z,15.72
2022-10-18T00:16:14.505Z,15.71
2022-10-18T00:18:44.579Z,15.76
2022-10-18T00:21:16.642Z,15.79
2022-10-18T00:23:46.406Z,15.77
2022-10-18T00:26:16.888Z,15.81
2022-10-18T00:28:46.010Z,15.85
2022-10-18T00:31:18.134Z,15.89
2022-10-18T00:33:49.052Z,15.93
2022-10-18T00:36:17.798Z,15.88
2022-10-18T00:38:46.936Z,16.03
2022-10-18T00:41:18.265Z,16.17
2022-10-18T00:43:58.959Z,16.20
2022-10-18T00:46:31.150Z,16.24
2022-10-18T00:49:02.515Z,16.25
2022-10-18T00:51:36.447Z,16.28
2022-10-18T00:54:05.426Z,16.23
2022-10-18T00:56:35.417Z,16.37
2022-10-18T00:59:04.560Z,16.32
2022-10-18T01:01:34.585Z,16.61
2022-10-18T01:04:03.837Z,16.64
2022-10-18T01:06:33.416Z,16.69
2022-10-18T01:09:11.788Z,16.80
2022-10-18T01:12:10.853Z,16.88
2022-10-18T01:14:47.309Z,16.96
2022-10-18T01:17:21.705Z,17.05
2022-10-18T01:20:18.793Z,17.08
2022-10-18T01:22:52.804Z,17.10
2022-10-18T01:25:35.478Z,17.18
2022-10-18T01:28:14.430Z,17.20
2022-10-18T01:30:48.927Z,17.33
2022-10-18T01:33:39.179Z,17.29
2022-10-18T01:36:15.471Z,17.35
2022-10-18T01:38:45.981Z,17.28
2022-10-18T01:41:16.126Z,17.28
2022-10-18T01:43:47.678Z,17.26
2022-10-18T01:46:22.205Z,17.23
2022-10-18T01:48:51.731Z,17.26
2022-10-18T01:51:21.059Z,17.35
2022-10-18T01:53:49.769Z,17.39
2022-10-18T01:56:24.811Z,17.33
2022-10-18T01:59:13.846Z,17.29
2022-10-18T02:01:52.224Z,17.23
2022-10-18T02:04:29.792Z,17.21
2022-10-18T02:07:04.170Z,17.06
2022-10-18T02:09:39.672Z,17.11
2022-10-18T02:12:13.335Z,17.11
2022-10-18T02:14:44.961Z,17.07
2022-10-18T02:17:17.532Z,17.03
2022-10-18T02:19:51.313Z,17.10
2022-10-18T02:22:21.462Z,17.19
2022-10-18T02:24:54.253Z,17.10
2022-10-18T02:27:23.677Z,17.16
2022-10-18T02:29:53.626Z,17.18
2022-10-18T02:32:31.776Z,17.15
2022-10-18T02:35:05.863Z,17.16
2022-10-18T02:37:38.139Z,17.07
2022-10-18T02:40:09.606Z,17.08
2022-10-18T02:42:40.505Z,17.16
2022-10-18T02:45:09.405Z,17.16
2022-10-18T02:47:39.309Z,17.13
2022-10-18T02:50:08.293Z,17.17
2022-10-18T02:52:37.318Z,17.08
2022-10-18T02:55:07.322Z,17.08
2022-10-18T02:57:36.242Z,16.97
2022-10-18T03:00:06.361Z,17.01
2022-10-18T03:02:35.185Z,16.92
2022-10-18T03:05:05.615Z,16.91
2022-10-18T03:07:34.310Z,17.01
2022-10-18T03:10:03.129Z,16.91
2022-10-18T03:12:31.648Z,16.87
2022-10-18T03:15:00.202Z,16.97
2022-10-18T03:17:28.886Z,16.88
2022-10-18T03:19:57.581Z,16.83
2022-10-18T03:24:58.220Z,16.89
2022-10-18T03:27:26.693Z,16.87
2022-10-18T03:29:55.188Z,16.77
2022-10-18T03:32:23.885Z,16.68
2022-10-18T03:34:52.389Z,16.61
2022-10-18T03:37:20.900Z,16.55
2022-10-18T03:39:50.860Z,16.53
2022-10-18T03:42:19.359Z,16.49
2022-10-18T03:44:47.915Z,16.47
2022-10-18T03:47:16.748Z,16.38
2022-10-18T03:49:45.300Z,16.42
2022-10-18T03:52:13.924Z,16.33
2022-10-18T03:54:42.415Z,16.34
2022-10-18T03:57:12.312Z,16.34
2022-10-18T03:59:40.858Z,16.24
2022-10-18T04:02:09.401Z,16.24
2022-10-18T04:04:38.304Z,16.19
2022-10-18T04:07:06.994Z,16.16
2022-10-18T04:09:35.929Z,16.14
2022-10-18T04:12:04.636Z,16.07
2022-10-18T04:14:34.561Z,16.02
2022-10-18T04:17:04.943Z,16.01
2022-10-18T04:19:33.468Z,15.95
2022-10-18T04:22:02.038Z,15.96
2022-10-18T04:24:30.668Z,15.97
2022-10-18T04:26:59.154Z,15.92
2022-10-18T04:29:27.710Z,15.94
2022-10-18T04:31:57.732Z,15.89
2022-10-18T04:34:26.306Z,15.84
2022-10-18T04:36:54.879Z,15.82
2022-10-18T04:39:23.446Z,15.76
2022-10-18T04:41:51.957Z,15.75
2022-10-18T04:44:20.561Z,15.72
2022-10-18T04:46:49.124Z,15.70
2022-10-18T04:49:19.123Z,15.74
2022-10-18T04:51:47.714Z,15.70
2022-10-18T04:54:16.285Z,15.69
2022-10-18T04:56:44.805Z,15.64
2022-10-18T04:59:13.457Z,15.57
2022-10-18T05:01:42.066Z,15.55
2022-10-18T05:04:10.959Z,15.55
2022-10-18T05:06:43.597Z,15.54
2022-10-18T05:09:12.109Z,15.54
2022-10-18T05:11:40.726Z,15.49
2022-10-18T05:14:10.206Z,15.50
2022-10-18T05:16:38.741Z,15.51
2022-10-18T05:19:07.378Z,15.49
2022-10-18T05:21:36.163Z,15.49
2022-10-18T05:24:06.768Z,15.47
2022-10-18T05:26:35.306Z,15.47
2022-10-18T05:29:04.615Z,15.46
2022-10-18T05:31:33.324Z,15.44
2022-10-18T05:34:01.984Z,15.45
2022-10-18T05:36:30.513Z,15.43
2022-10-18T05:39:02.428Z,15.44
2022-10-18T05:41:35.140Z,15.42
2022-10-18T05:44:05.112Z,15.44
2022-10-18T05:46:34.481Z,15.41
2022-10-18T05:49:02.994Z,15.37
2022-10-18T05:51:31.607Z,15.34
2022-10-18T05:54:00.723Z,15.36
2022-10-18T05:56:29.359Z,15.31
2022-10-18T05:58:59.708Z,15.32
2022-10-18T06:01:28.308Z,15.30
2022-10-18T06:03:56.851Z,15.26
2022-10-18T06:06:25.362Z,15.25
2022-10-18T06:08:54.063Z,15.23
2022-10-18T06:11:22.639Z,15.22
2022-10-18T06:13:52.328Z,15.22
2022-10-18T06:16:26.197Z,15.20
2022-10-18T06:18:59.910Z,15.21
2022-10-18T06:21:28.589Z,15.22
2022-10-18T06:23:59.030Z,15.19
2022-10-18T06:26:28.602Z,15.19
2022-10-18T06:28:57.349Z,15.19
2022-10-18T06:31:27.488Z,15.17
2022-10-18T06:33:57.982Z,15.17
2022-10-18T06:36:26.892Z,15.16
2022-10-18T06:38:56.584Z,15.15
2022-10-18T06:41:25.424Z,15.14
2022-10-18T06:43:57.624Z,15.17
2022-10-18T06:46:27.912Z,15.15
2022-10-18T06:48:57.758Z,15.13
2022-10-18T06:51:26.273Z,15.13
2022-10-18T06:54:06.187Z,15.14
2022-10-18T06:56:43.491Z,15.16
2022-10-18T06:59:12.134Z,15.16
2022-10-18T07:01:42.093Z,15.15
2022-10-18T07:04:10.771Z,15.17
2022-10-18T07:06:39.283Z,15.14
2022-10-18T07:09:07.794Z,15.11
2022-10-18T07:11:36.428Z,15.11
2022-10-18T07:14:05.361Z,15.08
2022-10-18T07:16:34.661Z,15.06
2022-10-18T07:19:04.799Z,15.05
2022-10-18T07:21:33.305Z,15.09
2022-10-18T07:24:01.868Z,15.10
2022-10-18T07:26:32.439Z,15.14
2022-10-18T07:29:02.907Z,15.17
2022-10-18T07:31:31.437Z,15.22
2022-10-18T07:33:59.998Z,15.23
2022-10-18T07:36:29.889Z,15.25
2022-10-18T07:38:58.576Z,15.28
2022-10-18T07:41:27.826Z,15.30
2022-10-18T07:43:56.348Z,15.32
2022-10-18T07:46:24.834Z,15.34
2022-10-18T07:48:53.781Z,15.37
2022-10-18T07:51:22.404Z,15.37
2022-10-18T07:53:52.451Z,15.33
2022-10-18T07:56:22.500Z,15.31
2022-10-18T07:58:53.175Z,15.30
2022-10-18T08:01:22.931Z,15.30
2022-10-18T08:03:52.349Z,15.29
2022-10-18T08:06:22.732Z,15.24
2022-10-18T08:08:53.610Z,15.30
2022-10-18T08:11:24.330Z,15.31
2022-10-18T08:13:53.932Z,15.26
2022-10-18T08:16:24.374Z,15.28
2022-10-18T08:18:53.331Z,15.25
2022-10-18T08:21:22.633Z,15.25
2022-10-18T08:23:53.795Z,15.23
2022-10-18T08:26:24.677Z,15.24
2022-10-18T08:29:09.868Z,15.23
2022-10-18T08:31:41.764Z,15.23
2022-10-18T08:34:10.276Z,15.23
2022-10-18T08:36:38.768Z,15.22
2022-10-18T08:39:08.730Z,15.22
2022-10-18T08:42:12.519Z,15.22
2022-10-18T08:44:46.593Z,15.18
2022-10-18T08:47:16.979Z,15.17
2022-10-18T08:49:48.664Z,15.12
2022-10-18T08:52:23.826Z,15.08
2022-10-18T08:55:00.593Z,15.04
2022-10-18T08:57:30.364Z,15.01
2022-10-18T08:59:59.253Z,14.98
2022-10-18T09:02:40.142Z,14.98
2022-10-18T09:05:20.985Z,15.01
2022-10-18T09:08:15.672Z,14.97
2022-10-18T09:14:04.793Z,14.91
2022-10-18T09:16:44.271Z,14.93
2022-10-18T09:19:28.054Z,14.92
2022-10-18T09:22:05.036Z,14.87
2022-10-18T09:24:42.125Z,14.88
2022-10-18T09:27:16.713Z,14.87
2022-10-18T09:30:00.835Z,14.85
2022-10-18T09:32:40.609Z,14.82
2022-10-18T09:35:18.104Z,14.82
2022-10-18T09:37:47.512Z,14.81
2022-10-18T09:40:19.680Z,14.79
2022-10-18T09:42:56.733Z,14.79
2022-10-18T09:45:29.052Z,14.77
2022-10-18T09:48:05.684Z,14.79
2022-10-18T09:50:39.232Z,14.77
2022-10-18T09:53:17.861Z,14.83
2022-10-18T09:55:56.547Z,14.78
2022-10-18T09:58:40.167Z,14.76
2022-10-18T10:01:11.173Z,14.77
2022-10-18T10:03:40.845Z,14.83
2022-10-18T10:06:25.525Z,14.82
2022-10-18T10:09:01.866Z,14.81
2022-10-18T10:11:36.587Z,14.80
2022-10-18T10:16:52.574Z,14.72
2022-10-18T10:19:25.580Z,14.75
2022-10-18T10:21:58.880Z,14.75
2022-10-18T10:24:36.412Z,14.76
2022-10-18T10:27:08.097Z,14.75
2022-10-18T10:30:04.154Z,14.73
2022-10-18T10:32:47.991Z,14.72
2022-10-18T10:35:52.993Z,14.70
2022-10-18T10:38:26.349Z,14.68
2022-10-18T10:40:55.559Z,14.68
2022-10-18T10:43:42.542Z,14.69
2022-10-18T10:46:14.078Z,14.70
2022-10-18T10:48:49.777Z,14.70
2022-10-18T10:51:29.435Z,14.70
2022-10-18T10:54:03.518Z,14.71
2022-10-18T10:56:34.163Z,14.70
2022-10-18T10:59:11.089Z,14.72
2022-10-18T11:01:41.702Z,14.73
2022-10-18T11:04:31.977Z,14.77
2022-10-18T11:07:25.105Z,14.81
2022-10-18T11:10:01.105Z,14.80
2022-10-18T11:12:34.703Z,14.84
2022-10-18T11:15:20.364Z,14.77
2022-10-18T11:18:03.683Z,14.77
2022-10-18T11:20:39.744Z,14.77
2022-10-18T11:23:11.480Z,14.75
2022-10-18T11:26:00.478Z,14.75
2022-10-18T11:28:40.533Z,14.75
2022-10-18T11:31:16.361Z,14.75
2022-10-18T11:34:09.120Z,14.77
2022-10-18T11:36:54.700Z,14.79
2022-10-18T11:39:44.137Z,14.75
2022-10-18T11:42:20.650Z,14.74
2022-10-18T11:44:59.095Z,14.75
2022-10-18T11:47:38.480Z,14.81
2022-10-18T11:50:16.193Z,14.77
2022-10-18T11:52:53.929Z,14.76
2022-10-18T11:55:43.805Z,14.78
2022-10-18T11:58:27.035Z,14.77
2022-10-18T12:01:01.725Z,14.78
2022-10-18T12:03:38.544Z,14.69
2022-10-18T12:06:16.072Z,14.79
2022-10-18T12:08:48.696Z,14.78
2022-10-18T12:11:20.383Z,14.79
2022-10-18T12:13:52.676Z,14.86
2022-10-18T12:16:45.441Z,14.87
2022-10-18T12:19:23.437Z,14.88
2022-10-18T12:21:58.879Z,14.90
2022-10-18T12:24:31.407Z,14.90
2022-10-18T12:27:02.407Z,14.93
2022-10-18T12:29:36.852Z,14.92
2022-10-18T12:32:12.396Z,14.95
2022-10-18T12:34:50.111Z,14.94
2022-10-18T12:37:46.170Z,14.96
2022-10-18T12:40:21.429Z,15.04
2022-10-18T12:42:52.357Z,15.02
2022-10-18T12:45:28.950Z,15.00
2022-10-18T12:48:00.923Z,15.00
2022-10-18T12:50:36.064Z,15.01
2022-10-18T12:53:16.822Z,15.00
2022-10-18T12:55:47.405Z,15.02
2022-10-18T12:58:28.003Z,15.09
2022-10-18T13:01:01.320Z,15.11
2022-10-18T13:04:00.129Z,15.12
2022-10-18T13:07:08.050Z,15.15
2022-10-18T13:09:39.070Z,15.13
2022-10-18T13:12:40.439Z,15.18
2022-10-18T13:15:34.200Z,15.19
2022-10-18T13:18:10.760Z,15.20
2022-10-18T13:20:45.100Z,15.24
2022-10-18T13:23:33.963Z,15.31
2022-10-18T13:26:21.204Z,15.32
2022-10-18T13:28:59.121Z,15.35
2022-10-18T13:31:32.018Z,15.42
2022-10-18T13:34:25.185Z,15.45
2022-10-18T13:37:04.187Z,15.41
2022-10-18T13:39:34.315Z,15.39
2022-10-18T13:42:34.526Z,15.43
2022-10-18T13:45:40.447Z,15.44
2022-10-18T13:48:46.903Z,15.51
2022-10-18T13:51:55.171Z,15.58
2022-10-18T13:54:46.207Z,15.72
2022-10-18T13:57:26.152Z,15.78
2022-10-18T14:00:13.368Z,15.78
2022-10-18T14:02:59.705Z,15.73
2022-10-18T14:05:48.987Z,15.75
2022-10-18T14:08:21.551Z,15.73
2022-10-18T14:11:02.444Z,15.69
2022-10-18T14:13:39.729Z,15.71
2022-10-18T14:16:31.601Z,15.67
2022-10-18T14:19:09.728Z,15.63
2022-10-18T14:21:43.368Z,15.74
2022-10-18T14:24:20.252Z,15.79
2022-10-18T14:26:49.045Z,15.87
2022-10-18T14:29:20.376Z,15.85
2022-10-18T14:31:56.434Z,15.74
2022-10-18T14:34:24.980Z,15.81
2022-10-18T14:36:53.967Z,15.96
2022-10-18T14:39:29.163Z,16.00
2022-10-18T14:41:59.270Z,15.97
2022-10-18T14:44:29.476Z,15.96
2022-10-18T14:47:15.153Z,15.91
2022-10-18T14:49:45.135Z,15.95
2022-10-18T14:52:17.271Z,15.88
2022-10-18T14:54:46.576Z,15.81
2022-10-18T14:57:23.810Z,15.57
2022-10-18T14:59:58.152Z,15.56
2022-10-18T15:02:29.747Z,15.53
2022-10-18T15:05:02.991Z,15.59
2022-10-18T15:07:32.808Z,15.45
2022-10-18T15:10:04.104Z,15.47
2022-10-18T15:12:45.621Z,15.50
2022-10-18T15:15:26.696Z,15.51
2022-10-18T15:17:57.300Z,15.57
2022-10-18T15:20:28.635Z,15.58
2022-10-18T15:23:22.135Z,15.48
2022-10-18T15:25:51.528Z,15.40
2022-10-18T15:28:30.581Z,15.43
2022-10-18T15:31:01.766Z,15.41
2022-10-18T15:33:34.855Z,15.40
2022-10-18T15:36:11.685Z,15.29
2022-10-18T15:38:40.309Z,15.27
2022-10-18T15:41:39.736Z,15.30
2022-10-18T15:44:13.327Z,15.22
2022-10-18T15:46:42.789Z,15.26
2022-10-18T15:49:56.468Z,15.11
2022-10-18T15:52:37.791Z,15.02
2022-10-18T15:55:49.778Z,14.93
2022-10-18T15:58:22.277Z,14.87
2022-10-18T16:00:52.449Z,14.87
2022-10-18T16:03:24.002Z,14.85
2022-10-18T16:05:57.073Z,14.77
2022-10-18T16:08:30.593Z,14.75
2022-10-18T16:10:59.872Z,14.71
2022-10-18T16:13:28.753Z,14.68
2022-10-18T16:15:57.533Z,14.70
2022-10-18T16:18:27.383Z,14.73
2022-10-18T16:20:59.191Z,14.66
2022-10-18T16:23:29.688Z,14.65
2022-10-18T16:25:58.479Z,14.56
2022-10-18T16:28:28.212Z,14.51
2022-10-18T16:30:58.561Z,14.47
2022-10-18T16:33:27.675Z,14.47
2022-10-18T16:35:56.556Z,14.39
2022-10-18T16:38:34.859Z,14.37
2022-10-18T16:41:04.809Z,14.36
2022-10-18T16:43:34.588Z,14.39
2022-10-18T16:46:05.136Z,14.42
2022-10-18T16:48:34.094Z,14.40
2022-10-18T16:51:03.183Z,14.37
2022-10-18T16:53:33.643Z,14.35
2022-10-18T16:56:05.018Z,14.44
2022-10-18T16:58:34.682Z,14.41
2022-10-18T17:01:05.414Z,14.42
2022-10-18T17:03:36.797Z,14.41
2022-10-18T17:06:05.497Z,14.38
2022-10-18T17:08:35.476Z,14.33
2022-10-18T17:11:04.108Z,14.30
2022-10-18T17:13:32.762Z,14.27
2022-10-18T17:16:03.441Z,14.22
2022-10-18T17:18:32.544Z,14.21
2022-10-18T17:21:03.361Z,14.16
2022-10-18T17:23:32.358Z,14.12
2022-10-18T17:26:06.781Z,14.12
2022-10-18T17:28:38.480Z,14.08
2022-10-18T17:31:08.422Z,14.06
2022-10-18T17:33:37.135Z,14.02
2022-10-18T17:36:06.063Z,13.97
2022-10-18T17:38:34.921Z,13.97
2022-10-18T17:41:09.061Z,13.94
2022-10-18T17:43:38.018Z,13.91
2022-10-18T17:46:07.056Z,13.88
2022-10-18T17:48:35.751Z,13.84
2022-10-18T17:51:08.449Z,13.81
2022-10-18T17:53:37.037Z,13.77
2022-10-18T17:56:08.253Z,13.74
2022-10-18T17:58:36.960Z,13.70
2022-10-18T18:01:12.912Z,13.70
2022-10-18T18:03:42.292Z,13.64
2022-10-18T18:06:19.423Z,13.61
2022-10-18T18:08:48.857Z,13.50
2022-10-18T18:11:19.588Z,13.45
2022-10-18T18:13:48.162Z,13.44
2022-10-18T18:16:19.033Z,13.44
2022-10-18T18:18:49.968Z,13.41
2022-10-18T18:21:19.599Z,13.40
2022-10-18T18:23:48.689Z,13.37
2022-10-18T18:26:19.440Z,13.36
2022-10-18T18:28:48.595Z,13.33
2022-10-18T18:31:19.727Z,13.32
2022-10-18T18:33:48.380Z,13.29
2022-10-18T18:36:16.982Z,13.23
2022-10-18T18:38:45.541Z,13.21
2022-10-18T18:41:16.204Z,13.25
2022-10-18T18:43:47.578Z,13.21
2022-10-18T18:46:16.257Z,13.22
2022-10-18T18:48:45.207Z,13.23
2022-10-18T18:51:15.711Z,13.27
2022-10-18T18:53:46.822Z,13.34
2022-10-18T18:56:17.714Z,13.31
2022-10-18T18:58:48.328Z,13.30
2022-10-18T19:01:19.688Z,13.29
2022-10-18T19:03:50.309Z,13.32
2022-10-18T19:06:20.797Z,13.29
2022-10-18T19:08:52.749Z,13.38
2022-10-18T19:11:23.457Z,13.40
2022-10-18T19:13:53.680Z,13.35
2022-10-18T19:16:25.563Z,13.31
2022-10-18T19:18:56.757Z,13.19
2022-10-18T19:21:27.360Z,13.15
2022-10-18T19:23:57.166Z,13.09
2022-10-18T19:26:33.159Z,13.07
2022-10-18T19:29:08.825Z,13.04
2022-10-18T19:31:38.770Z,13.02
2022-10-18T19:34:09.787Z,12.95
2022-10-18T19:36:39.346Z,12.93
2022-10-18T19:39:10.089Z,12.94
2022-10-18T19:41:41.182Z,12.90
2022-10-18T19:44:11.064Z,12.87
2022-10-18T19:46:39.651Z,12.87
2022-10-18T19:49:08.280Z,12.84
2022-10-18T19:51:37.067Z,12.87
2022-10-18T19:54:06.080Z,12.81
2022-10-18T19:56:34.963Z,12.73
2022-10-18T19:59:03.495Z,12.70
2022-10-18T20:01:33.495Z,12.74
2022-10-18T20:04:03.871Z,12.66
2022-10-18T20:06:33.016Z,12.69
2022-10-18T20:09:01.826Z,12.64
2022-10-18T20:11:31.038Z,12.60
2022-10-18T20:14:00.304Z,12.60
2022-10-18T20:16:30.685Z,12.55
2022-10-18T20:19:02.700Z,12.50
2022-10-18T20:21:35.685Z,12.46
2022-10-18T20:24:05.719Z,12.50
2022-10-18T20:26:35.952Z,12.45
2022-10-18T20:29:05.364Z,12.42
2022-10-18T20:31:38.489Z,12.37
2022-10-18T20:34:11.670Z,12.31
2022-10-18T20:36:40.667Z,12.30
2022-10-18T20:39:10.658Z,12.28
2022-10-18T20:41:41.292Z,12.20
2022-10-18T20:44:15.306Z,12.15
2022-10-18T20:46:45.157Z,12.10
2022-10-18T20:49:17.274Z,12.15
2022-10-18T20:51:46.284Z,12.11
2022-10-18T20:54:14.924Z,12.08
2022-10-18T20:56:43.657Z,12.20
2022-10-18T20:59:12.319Z,12.15
2022-10-18T21:01:41.055Z,12.17
2022-10-18T21:04:11.347Z,12.09
2022-10-18T21:06:43.249Z,12.05
2022-10-18T21:09:14.542Z,12.06
2022-10-18T21:11:45.142Z,12.05
2022-10-18T21:14:16.124Z,12.00
2022-10-18T21:16:45.639Z,11.97
2022-10-18T21:19:18.411Z,11.93
2022-10-18T21:21:50.745Z,11.96
2022-10-18T21:24:20.655Z,11.89
2022-10-18T21:26:49.538Z,11.85
2022-10-18T21:29:22.148Z,11.81
2022-10-18T21:31:55.278Z,11.86
2022-10-18T21:34:23.913Z,11.81
2022-10-18T21:36:53.821Z,11.76
2022-10-18T21:41:58.088Z,11.70
2022-10-18T21:44:26.708Z,11.71
2022-10-18T21:46:55.652Z,11.72
2022-10-18T21:49:25.159Z,11.59
2022-10-18T21:51:55.176Z,11.59
2022-10-18T21:54:23.694Z,11.60
2022-10-18T21:56:52.221Z,11.54
2022-10-18T21:59:20.855Z,11.50
2022-10-18T22:01:49.614Z,11.51
2022-10-18T22:04:20.665Z,11.46
2022-10-18T22:06:49.483Z,11.47
2022-10-18T22:09:21.127Z,11.47
2022-10-18T22:11:52.665Z,11.41
2022-10-18T22:14:21.580Z,11.44
2022-10-18T22:16:50.335Z,11.44
2022-10-18T22:19:19.149Z,11.40
2022-10-18T22:21:47.667Z,11.33
2022-10-18T22:24:16.219Z,11.36
2022-10-18T22:26:47.134Z,11.39
2022-10-18T22:29:17.265Z,11.43
2022-10-18T22:31:47.576Z,11.44
2022-10-18T22:34:19.091Z,11.51
2022-10-18T22:36:47.938Z,11.48
2022-10-18T22:39:17.176Z,11.43
2022-10-18T22:41:47.612Z,11.45
2022-10-18T22:44:16.577Z,11.45
2022-10-18T22:46:45.191Z,11.53
2022-10-18T22:49:13.957Z,11.55
2022-10-18T22:51:42.536Z,11.57
2022-10-18T22:54:11.211Z,11.63
2022-10-18T22:56:39.779Z,11.62
2022-10-18T22:59:09.855Z,11.68
2022-10-18T23:01:39.544Z,11.68
2022-10-18T23:04:08.077Z,11.71
2022-10-18T23:06:37.682Z,11.76
2022-10-18T23:09:09.309Z,11.89
2022-10-18T23:11:38.930Z,11.94
2022-10-18T23:14:09.604Z,11.90
2022-10-18T23:16:38.268Z,11.98
2022-10-18T23:19:06.816Z,11.96
2022-10-18T23:21:35.557Z,11.94
2022-10-18T23:24:04.547Z,11.97
2022-10-18T23:26:33.197Z,11.88
2022-10-18T23:29:01.829Z,12.00
2022-10-18T23:31:33.848Z,11.98
2022-10-18T23:34:04.941Z,11.99
2022-10-18T23:36:34.539Z,12.02
2022-10-18T23:39:04.030Z,11.96
2022-10-18T23:41:32.547Z,11.97
2022-10-18T23:44:02.383Z,11.92
2022-10-18T23:46:32.590Z,11.92
2022-10-18T23:49:01.072Z,11.93
2022-10-18T23:51:29.611Z,11.92
2022-10-18T23:53:58.120Z,11.89
2022-10-18T23:56:26.608Z,11.84
2022-10-18T23:58:55.186Z,11.80
